sensor_id;sensor_type;location;lat;lon;timestamp;temperature;humidity
12060;DHT22;6091;51.432;6.880;2024-03-23T00:53:57;23.30;41.00
12060;DHT22;6091;51.432;6.880;2024-03-23T00:56:23;23.30;41.00
12060;DHT22;6091;51.432;6.880;2024-03-23T00:58:49;23.20;40.90
12060;DHT22;6091;51.432;6.880;2024-03-23T01:01:16;23.20;41.00
12060;DHT22;6091;51.432;6.880;2024-03-23T01:03:42;23.20;40.90
12060;DHT22;6091;51.432;6.880;2024-03-23T01:06:08;23.20;40.90
12060;DHT22;6091;51.432;6.880;2024-03-23T01:08:34;23.20;40.90
12060;DHT22;6091;51.432;6.880;2024-03-23T01:11:01;23.20;41.00
12060;DHT22;6091;51.432;6.880;2024-03-23T01:13:28;22.80;40.70
12060;DHT22;6091;51.432;6.880;2024-03-23T01:15:55;23.20;41.00
12060;DHT22;6091;51.432;6.880;2024-03-23T01:18:23;23.20;41.00
12060;DHT22;6091;51.432;6.880;2024-03-23T01:20:50;23.20;41.00
12060;DHT22;6091;51.432;6.880;2024-03-23T01:23:16;23.20;41.00
12060;DHT22;6091;51.432;6.880;2024-03-23T01:25:42;23.20;41.00
12060;DHT22;6091;51.432;6.880;2024-03-23T01:28:08;23.20;41.00
12060;DHT22;6091;51.432;6.880;2024-03-23T01:30:35;23.20;41.10
12060;DHT22;6091;51.432;6.880;2024-03-23T01:33:02;23.10;40.90
12060;DHT22;6091;51.432;6.880;2024-03-23T01:35:28;23.10;40.90
12060;DHT22;6091;51.432;6.880;2024-03-23T01:37:55;23.20;41.00
12060;DHT22;6091;51.432;6.880;2024-03-23T01:40:21;23.10;41.00
12060;DHT22;6091;51.432;6.880;2024-03-23T01:43:30;23.10;41.00
12060;DHT22;6091;51.432;6.880;2024-03-23T01:45:50;23.20;41.10
12060;DHT22;6091;51.432;6.880;2024-03-23T01:48:20;23.10;41.00
12060;DHT22;6091;51.432;6.880;2024-03-23T01:50:47;23.10;41.00
12060;DHT22;6091;51.432;6.880;2024-03-23T01:53:14;23.10;41.60
12060;DHT22;6091;51.432;6.880;2024-03-23T01:55:43;23.10;41.00
12060;DHT22;6091;51.432;6.880;2024-03-23T01:58:09;23.10;41.00
12060;DHT22;6091;51.432;6.880;2024-03-23T02:00:36;23.10;41.00
12060;DHT22;6091;51.432;6.880;2024-03-23T02:03:03;23.10;41.00
12060;DHT22;6091;51.432;6.880;2024-03-23T02:05:48;23.10;41.00
12060;DHT22;6091;51.432;6.880;2024-03-23T02:08:14;23.10;41.00
12060;DHT22;6091;51.432;6.880;2024-03-23T02:10:41;23.00;40.90
12060;DHT22;6091;51.432;6.880;2024-03-23T02:13:08;23.10;41.00
12060;DHT22;6091;51.432;6.880;2024-03-23T02:15:35;23.00;41.00
12060;DHT22;6091;51.432;6.880;2024-03-23T02:18:01;23.00;41.00
12060;DHT22;6091;51.432;6.880;2024-03-23T02:20:27;23.00;41.00
12060;DHT22;6091;51.432;6.880;2024-03-23T02:22:53;23.00;41.00
12060;DHT22;6091;51.432;6.880;2024-03-23T02:25:20;23.00;41.00
12060;DHT22;6091;51.432;6.880;2024-03-23T02:27:46;23.00;41.10
12060;DHT22;6091;51.432;6.880;2024-03-23T02:30:12;23.00;41.00
12060;DHT22;6091;51.432;6.880;2024-03-23T02:32:38;23.00;41.00
12060;DHT22;6091;51.432;6.880;2024-03-23T02:35:04;23.00;41.00
12060;DHT22;6091;51.432;6.880;2024-03-23T02:37:31;23.00;41.10
12060;DHT22;6091;51.432;6.880;2024-03-23T02:39:58;22.90;41.00
12060;DHT22;6091;51.432;6.880;2024-03-23T02:42:24;22.90;41.00
12060;DHT22;6091;51.432;6.880;2024-03-23T02:44:51;23.00;41.00
12060;DHT22;6091;51.432;6.880;2024-03-23T02:47:17;22.70;40.80
12060;DHT22;6091;51.432;6.880;2024-03-23T02:49:43;22.90;41.00
12060;DHT22;6091;51.432;6.880;2024-03-23T02:52:09;22.90;40.90
12060;DHT22;6091;51.432;6.880;2024-03-23T02:54:35;22.90;41.00
12060;DHT22;6091;51.432;6.880;2024-03-23T02:57:01;22.90;41.00
12060;DHT22;6091;51.432;6.880;2024-03-23T02:59:27;22.90;41.00
12060;DHT22;6091;51.432;6.880;2024-03-23T03:01:54;22.90;41.00
12060;DHT22;6091;51.432;6.880;2024-03-23T03:04:20;22.90;41.00
12060;DHT22;6091;51.432;6.880;2024-03-23T03:06:47;22.90;41.00
12060;DHT22;6091;51.432;6.880;2024-03-23T03:09:14;22.90;41.00
12060;DHT22;6091;51.432;6.880;2024-03-23T03:11:40;22.90;41.00
12060;DHT22;6091;51.432;6.880;2024-03-23T03:14:06;22.90;41.00
12060;DHT22;6091;51.432;6.880;2024-03-23T03:16:33;22.90;41.10
12060;DHT22;6091;51.432;6.880;2024-03-23T03:19:00;22.90;41.10
12060;DHT22;6091;51.432;6.880;2024-03-23T03:21:26;22.90;41.10
12060;DHT22;6091;51.432;6.880;2024-03-23T03:23:52;22.90;41.10
12060;DHT22;6091;51.432;6.880;2024-03-23T03:26:18;22.90;41.00
12060;DHT22;6091;51.432;6.880;2024-03-23T03:28:45;22.90;41.10
12060;DHT22;6091;51.432;6.880;2024-03-23T03:31:23;22.80;41.00
12060;DHT22;6091;51.432;6.880;2024-03-23T03:33:50;22.90;41.10
12060;DHT22;6091;51.432;6.880;2024-03-23T03:36:19;22.90;41.10
12060;DHT22;6091;51.432;6.880;2024-03-23T03:38:45;22.80;41.00
12060;DHT22;6091;51.432;6.880;2024-03-23T03:41:11;22.80;41.10
12060;DHT22;6091;51.432;6.880;2024-03-23T03:43:37;22.80;41.00
12060;DHT22;6091;51.432;6.880;2024-03-23T03:46:04;22.80;41.10
12060;DHT22;6091;51.432;6.880;2024-03-23T03:48:30;22.80;41.10
12060;DHT22;6091;51.432;6.880;2024-03-23T03:50:56;22.80;41.10
12060;DHT22;6091;51.432;6.880;2024-03-23T03:53:22;22.80;41.10
12060;DHT22;6091;51.432;6.880;2024-03-23T03:55:48;22.80;41.10
12060;DHT22;6091;51.432;6.880;2024-03-23T03:58:14;22.80;41.10
12060;DHT22;6091;51.432;6.880;2024-03-23T04:00:41;22.80;41.10
12060;DHT22;6091;51.432;6.880;2024-03-23T04:03:07;22.80;41.20
12060;DHT22;6091;51.432;6.880;2024-03-23T04:05:33;22.70;41.00
12060;DHT22;6091;51.432;6.880;2024-03-23T04:07:59;22.80;41.10
12060;DHT22;6091;51.432;6.880;2024-03-23T04:10:25;22.70;41.00
12060;DHT22;6091;51.432;6.880;2024-03-23T04:12:52;22.80;41.10
12060;DHT22;6091;51.432;6.880;2024-03-23T04:15:20;22.70;41.00
12060;DHT22;6091;51.432;6.880;2024-03-23T04:17:46;22.80;41.20
12060;DHT22;6091;51.432;6.880;2024-03-23T04:20:13;22.70;41.00
12060;DHT22;6091;51.432;6.880;2024-03-23T04:22:40;22.70;41.10
12060;DHT22;6091;51.432;6.880;2024-03-23T04:25:07;22.70;41.10
12060;DHT22;6091;51.432;6.880;2024-03-23T04:27:33;22.70;41.00
12060;DHT22;6091;51.432;6.880;2024-03-23T04:29:59;22.70;41.00
12060;DHT22;6091;51.432;6.880;2024-03-23T04:32:28;22.70;41.10
12060;DHT22;6091;51.432;6.880;2024-03-23T04:34:54;22.70;41.10
12060;DHT22;6091;51.432;6.880;2024-03-23T04:37:21;22.70;41.10
12060;DHT22;6091;51.432;6.880;2024-03-23T04:39:47;22.70;41.10
12060;DHT22;6091;51.432;6.880;2024-03-23T04:42:17;22.70;41.10
12060;DHT22;6091;51.432;6.880;2024-03-23T04:44:43;22.70;41.10
12060;DHT22;6091;51.432;6.880;2024-03-23T04:47:10;22.70;41.10
12060;DHT22;6091;51.432;6.880;2024-03-23T04:49:37;22.70;41.10
12060;DHT22;6091;51.432;6.880;2024-03-23T04:52:04;22.70;41.10
12060;DHT22;6091;51.432;6.880;2024-03-23T04:54:30;22.70;41.10
12060;DHT22;6091;51.432;6.880;2024-03-23T04:56:58;22.70;41.10
12060;DHT22;6091;51.432;6.880;2024-03-23T04:59:24;22.60;41.10
12060;DHT22;6091;51.432;6.880;2024-03-23T05:01:51;22.70;41.10
12060;DHT22;6091;51.432;6.880;2024-03-23T05:04:17;22.60;41.00
12060;DHT22;6091;51.432;6.880;2024-03-23T05:06:43;22.60;41.10
12060;DHT22;6091;51.432;6.880;2024-03-23T05:09:09;22.60;41.10
12060;DHT22;6091;51.432;6.880;2024-03-23T05:11:38;22.60;41.10
12060;DHT22;6091;51.432;6.880;2024-03-23T05:14:04;22.60;41.00
12060;DHT22;6091;51.432;6.880;2024-03-23T05:16:30;22.60;41.00
12060;DHT22;6091;51.432;6.880;2024-03-23T05:18:56;22.60;41.00
12060;DHT22;6091;51.432;6.880;2024-03-23T05:21:23;22.60;41.00
12060;DHT22;6091;51.432;6.880;2024-03-23T05:23:49;22.60;41.10
12060;DHT22;6091;51.432;6.880;2024-03-23T05:26:15;22.50;41.00
12060;DHT22;6091;51.432;6.880;2024-03-23T05:28:41;22.50;41.00
12060;DHT22;6091;51.432;6.880;2024-03-23T05:31:07;22.60;41.10
12060;DHT22;6091;51.432;6.880;2024-03-23T05:33:38;22.50;41.00
12060;DHT22;6091;51.432;6.880;2024-03-23T05:36:04;22.60;41.10
12060;DHT22;6091;51.432;6.880;2024-03-23T05:38:31;22.60;41.10
12060;DHT22;6091;51.432;6.880;2024-03-23T05:40:59;22.60;41.10
12060;DHT22;6091;51.432;6.880;2024-03-23T05:43:26;22.60;41.10
12060;DHT22;6091;51.432;6.880;2024-03-23T05:45:58;22.50;41.00
12060;DHT22;6091;51.432;6.880;2024-03-23T05:48:26;22.50;41.10
12060;DHT22;6091;51.432;6.880;2024-03-23T05:50:53;22.50;41.00
12060;DHT22;6091;51.432;6.880;2024-03-23T05:53:20;22.50;41.10
12060;DHT22;6091;51.432;6.880;2024-03-23T05:55:49;22.50;41.10
12060;DHT22;6091;51.432;6.880;2024-03-23T05:58:17;22.90;41.40
12060;DHT22;6091;51.432;6.880;2024-03-23T06:00:46;22.50;41.10
12060;DHT22;6091;51.432;6.880;2024-03-23T06:03:12;22.40;41.00
12060;DHT22;6091;51.432;6.880;2024-03-23T06:05:39;22.50;41.10
12060;DHT22;6091;51.432;6.880;2024-03-23T06:08:05;22.40;41.10
12060;DHT22;6091;51.432;6.880;2024-03-23T06:10:35;22.50;41.10
12060;DHT22;6091;51.432;6.880;2024-03-23T06:13:01;22.50;41.10
12060;DHT22;6091;51.432;6.880;2024-03-23T06:15:27;22.50;41.10
12060;DHT22;6091;51.432;6.880;2024-03-23T06:17:53;22.50;41.10
12060;DHT22;6091;51.432;6.880;2024-03-23T06:20:19;22.40;41.10
12060;DHT22;6091;51.432;6.880;2024-03-23T06:22:45;22.40;41.10
12060;DHT22;6091;51.432;6.880;2024-03-23T06:25:11;22.40;41.10
12060;DHT22;6091;51.432;6.880;2024-03-23T06:27:38;22.40;41.00
12060;DHT22;6091;51.432;6.880;2024-03-23T06:30:05;22.40;41.00
12060;DHT22;6091;51.432;6.880;2024-03-23T06:32:32;22.40;41.00
12060;DHT22;6091;51.432;6.880;2024-03-23T06:34:58;22.40;41.00
12060;DHT22;6091;51.432;6.880;2024-03-23T06:37:25;22.40;41.00
12060;DHT22;6091;51.432;6.880;2024-03-23T06:39:51;22.40;41.10
12060;DHT22;6091;51.432;6.880;2024-03-23T06:42:17;22.40;41.10
12060;DHT22;6091;51.432;6.880;2024-03-23T06:44:44;22.40;41.10
12060;DHT22;6091;51.432;6.880;2024-03-23T06:47:10;22.40;41.10
12060;DHT22;6091;51.432;6.880;2024-03-23T06:49:36;22.40;41.10
12060;DHT22;6091;51.432;6.880;2024-03-23T06:52:02;22.40;41.10
12060;DHT22;6091;51.432;6.880;2024-03-23T06:54:28;22.40;41.10
12060;DHT22;6091;51.432;6.880;2024-03-23T06:56:54;22.40;41.10
12060;DHT22;6091;51.432;6.880;2024-03-23T06:59:20;22.40;41.10
12060;DHT22;6091;51.432;6.880;2024-03-23T07:01:46;22.40;41.10
12060;DHT22;6091;51.432;6.880;2024-03-23T07:04:12;22.40;41.10
12060;DHT22;6091;51.432;6.880;2024-03-23T07:06:45;22.40;41.20
12060;DHT22;6091;51.432;6.880;2024-03-23T07:09:12;22.40;41.20
12060;DHT22;6091;51.432;6.880;2024-03-23T07:11:38;22.40;41.10
12060;DHT22;6091;51.432;6.880;2024-03-23T07:14:04;22.40;41.10
12060;DHT22;6091;51.432;6.880;2024-03-23T07:16:30;22.40;41.20
12060;DHT22;6091;51.432;6.880;2024-03-23T07:18:57;22.40;41.10
12060;DHT22;6091;51.432;6.880;2024-03-23T07:21:23;22.40;41.10
12060;DHT22;6091;51.432;6.880;2024-03-23T07:23:49;22.40;41.10
12060;DHT22;6091;51.432;6.880;2024-03-23T07:26:15;22.40;41.10
12060;DHT22;6091;51.432;6.880;2024-03-23T07:28:43;22.40;41.00
12060;DHT22;6091;51.432;6.880;2024-03-23T07:31:12;22.40;41.10
12060;DHT22;6091;51.432;6.880;2024-03-23T07:33:46;22.40;41.00
12060;DHT22;6091;51.432;6.880;2024-03-23T07:36:14;22.40;41.10
12060;DHT22;6091;51.432;6.880;2024-03-23T07:38:41;22.40;41.10
12060;DHT22;6091;51.432;6.880;2024-03-23T07:41:10;22.40;41.10
12060;DHT22;6091;51.432;6.880;2024-03-23T07:43:39;22.40;41.10
12060;DHT22;6091;51.432;6.880;2024-03-23T07:46:06;22.40;41.00
12060;DHT22;6091;51.432;6.880;2024-03-23T07:48:33;22.40;41.10
12060;DHT22;6091;51.432;6.880;2024-03-23T07:51:03;22.40;41.70
12060;DHT22;6091;51.432;6.880;2024-03-23T07:53:32;22.50;41.20
12060;DHT22;6091;51.432;6.880;2024-03-23T07:56:09;22.50;41.20
12060;DHT22;6091;51.432;6.880;2024-03-23T07:58:36;22.40;41.00
12060;DHT22;6091;51.432;6.880;2024-03-23T08:01:13;22.50;41.00
12060;DHT22;6091;51.432;6.880;2024-03-23T08:03:45;22.50;41.10
12060;DHT22;6091;51.432;6.880;2024-03-23T08:06:18;22.50;41.00
12060;DHT22;6091;51.432;6.880;2024-03-23T08:08:47;22.50;41.00
12060;DHT22;6091;51.432;6.880;2024-03-23T08:11:14;22.50;41.00
12060;DHT22;6091;51.432;6.880;2024-03-23T08:13:42;22.50;41.00
12060;DHT22;6091;51.432;6.880;2024-03-23T08:16:11;22.50;41.00
12060;DHT22;6091;51.432;6.880;2024-03-23T08:18:39;22.50;41.00
12060;DHT22;6091;51.432;6.880;2024-03-23T08:21:06;22.60;41.10
12060;DHT22;6091;51.432;6.880;2024-03-23T08:23:34;22.50;41.10
12060;DHT22;6091;51.432;6.880;2024-03-23T08:26:05;22.50;41.10
12060;DHT22;6091;51.432;6.880;2024-03-23T08:28:33;22.50;41.20
12060;DHT22;6091;51.432;6.880;2024-03-23T08:31:04;22.60;41.40
12060;DHT22;6091;51.432;6.880;2024-03-23T08:33:32;22.60;41.50
12060;DHT22;6091;51.432;6.880;2024-03-23T08:36:00;22.60;41.60
12060;DHT22;6091;51.432;6.880;2024-03-23T08:38:28;22.60;41.60
12060;DHT22;6091;51.432;6.880;2024-03-23T08:41:01;22.60;41.60
12060;DHT22;6091;51.432;6.880;2024-03-23T08:43:29;22.60;42.10
12060;DHT22;6091;51.432;6.880;2024-03-23T08:48:36;22.70;41.20
12060;DHT22;6091;51.432;6.880;2024-03-23T08:51:06;22.70;41.20
12060;DHT22;6091;51.432;6.880;2024-03-23T08:53:35;22.70;41.10
12060;DHT22;6091;51.432;6.880;2024-03-23T08:56:02;22.70;41.10
12060;DHT22;6091;51.432;6.880;2024-03-23T08:58:30;22.70;41.20
12060;DHT22;6091;51.432;6.880;2024-03-23T09:01:04;22.70;41.10
12060;DHT22;6091;51.432;6.880;2024-03-23T09:03:36;22.60;41.10
12060;DHT22;6091;51.432;6.880;2024-03-23T09:06:10;22.70;41.20
12060;DHT22;6091;51.432;6.880;2024-03-23T09:08:39;22.70;41.20
12060;DHT22;6091;51.432;6.880;2024-03-23T09:11:12;22.70;41.10
12060;DHT22;6091;51.432;6.880;2024-03-23T09:13:40;22.60;41.10
12060;DHT22;6091;51.432;6.880;2024-03-23T09:16:07;22.70;41.10
12060;DHT22;6091;51.432;6.880;2024-03-23T09:18:35;22.60;41.10
12060;DHT22;6091;51.432;6.880;2024-03-23T09:21:03;22.70;41.20
12060;DHT22;6091;51.432;6.880;2024-03-23T09:23:30;22.70;41.10
12060;DHT22;6091;51.432;6.880;2024-03-23T09:25:56;22.70;41.10
12060;DHT22;6091;51.432;6.880;2024-03-23T09:28:22;22.70;41.20
12060;DHT22;6091;51.432;6.880;2024-03-23T09:30:49;22.70;41.10
12060;DHT22;6091;51.432;6.880;2024-03-23T09:33:15;22.70;41.10
12060;DHT22;6091;51.432;6.880;2024-03-23T09:35:43;22.70;41.10
12060;DHT22;6091;51.432;6.880;2024-03-23T09:38:13;22.70;41.10
12060;DHT22;6091;51.432;6.880;2024-03-23T09:40:43;22.80;41.20
12060;DHT22;6091;51.432;6.880;2024-03-23T09:43:10;22.80;41.10
12060;DHT22;6091;51.432;6.880;2024-03-23T09:45:39;22.80;41.20
12060;DHT22;6091;51.432;6.880;2024-03-23T09:48:09;22.80;41.60
12060;DHT22;6091;51.432;6.880;2024-03-23T09:50:39;22.90;41.00
12060;DHT22;6091;51.432;6.880;2024-03-23T09:53:11;22.90;41.00
12060;DHT22;6091;51.432;6.880;2024-03-23T09:55:39;22.90;41.00
12060;DHT22;6091;51.432;6.880;2024-03-23T09:58:06;22.90;40.90
12060;DHT22;6091;51.432;6.880;2024-03-23T10:00:35;22.80;40.70
12060;DHT22;6091;51.432;6.880;2024-03-23T10:03:03;22.80;40.80
12060;DHT22;6091;51.432;6.880;2024-03-23T10:05:32;22.90;40.80
12060;DHT22;6091;51.432;6.880;2024-03-23T10:08:31;22.90;40.70
12060;DHT22;6091;51.432;6.880;2024-03-23T10:11:12;23.00;40.60
12060;DHT22;6091;51.432;6.880;2024-03-23T10:13:44;23.00;40.70
12060;DHT22;6091;51.432;6.880;2024-03-23T10:16:24;23.00;40.70
12060;DHT22;6091;51.432;6.880;2024-03-23T10:18:53;23.10;40.90
12060;DHT22;6091;51.432;6.880;2024-03-23T10:21:19;23.10;41.00
12060;DHT22;6091;51.432;6.880;2024-03-23T10:23:45;23.10;41.00
12060;DHT22;6091;51.432;6.880;2024-03-23T10:29:02;23.20;41.10
12060;DHT22;6091;51.432;6.880;2024-03-23T10:31:37;23.30;41.00
12060;DHT22;6091;51.432;6.880;2024-03-23T10:34:05;23.30;41.10
12060;DHT22;6091;51.432;6.880;2024-03-23T10:36:34;23.30;41.10
12060;DHT22;6091;51.432;6.880;2024-03-23T10:39:05;23.40;41.10
12060;DHT22;6091;51.432;6.880;2024-03-23T10:41:33;23.40;41.00
12060;DHT22;6091;51.432;6.880;2024-03-23T10:44:01;23.40;40.90
12060;DHT22;6091;51.432;6.880;2024-03-23T10:46:28;23.40;40.70
12060;DHT22;6091;51.432;6.880;2024-03-23T10:48:54;23.40;40.80
12060;DHT22;6091;51.432;6.880;2024-03-23T10:51:21;23.40;40.80
12060;DHT22;6091;51.432;6.880;2024-03-23T10:53:47;23.40;40.70
12060;DHT22;6091;51.432;6.880;2024-03-23T10:56:15;23.30;40.60
12060;DHT22;6091;51.432;6.880;2024-03-23T10:58:47;23.30;40.60
12060;DHT22;6091;51.432;6.880;2024-03-23T11:01:15;23.30;40.60
12060;DHT22;6091;51.432;6.880;2024-03-23T11:03:46;23.30;40.70
12060;DHT22;6091;51.432;6.880;2024-03-23T11:06:48;23.30;40.70
12060;DHT22;6091;51.432;6.880;2024-03-23T11:15:06;23.30;40.90
12060;DHT22;6091;51.432;6.880;2024-03-23T11:17:37;23.30;41.10
12060;DHT22;6091;51.432;6.880;2024-03-23T11:20:08;23.40;41.40
12060;DHT22;6091;51.432;6.880;2024-03-23T11:22:44;23.40;41.40
12060;DHT22;6091;51.432;6.880;2024-03-23T11:25:24;23.50;41.50
12060;DHT22;6091;51.432;6.880;2024-03-23T11:27:53;23.70;41.50
12060;DHT22;6091;51.432;6.880;2024-03-23T11:30:28;23.80;41.80
12060;DHT22;6091;51.432;6.880;2024-03-23T11:32:56;23.90;41.70
12060;DHT22;6091;51.432;6.880;2024-03-23T11:35:39;24.10;42.10
12060;DHT22;6091;51.432;6.880;2024-03-23T11:38:11;24.40;41.80
12060;DHT22;6091;51.432;6.880;2024-03-23T11:40:40;24.60;42.30
12060;DHT22;6091;51.432;6.880;2024-03-23T11:43:13;24.90;42.30
12060;DHT22;6091;51.432;6.880;2024-03-23T11:45:52;25.10;42.20
12060;DHT22;6091;51.432;6.880;2024-03-23T11:48:22;25.40;41.50
12060;DHT22;6091;51.432;6.880;2024-03-23T11:50:51;25.60;41.80
12060;DHT22;6091;51.432;6.880;2024-03-23T11:53:24;25.90;41.70
12060;DHT22;6091;51.432;6.880;2024-03-23T11:55:58;26.10;41.40
12060;DHT22;6091;51.432;6.880;2024-03-23T11:58:27;26.30;41.20
12060;DHT22;6091;51.432;6.880;2024-03-23T12:01:03;26.50;41.10
12060;DHT22;6091;51.432;6.880;2024-03-23T12:03:31;26.70;40.10
12060;DHT22;6091;51.432;6.880;2024-03-23T12:06:00;26.80;40.20
12060;DHT22;6091;51.432;6.880;2024-03-23T12:11:06;26.90;39.50
12060;DHT22;6091;51.432;6.880;2024-03-23T12:13:42;26.90;38.10
12060;DHT22;6091;51.432;6.880;2024-03-23T12:16:20;26.70;37.60
12060;DHT22;6091;51.432;6.880;2024-03-23T12:18:50;26.60;36.50
12060;DHT22;6091;51.432;6.880;2024-03-23T12:21:17;26.50;36.80
12060;DHT22;6091;51.432;6.880;2024-03-23T12:23:44;26.30;37.10
12060;DHT22;6091;51.432;6.880;2024-03-23T12:26:13;26.20;37.30
12060;DHT22;6091;51.432;6.880;2024-03-23T12:28:39;26.10;37.10
12060;DHT22;6091;51.432;6.880;2024-03-23T12:31:06;26.00;37.20
12060;DHT22;6091;51.432;6.880;2024-03-23T12:33:32;26.00;37.40
12060;DHT22;6091;51.432;6.880;2024-03-23T12:35:59;26.00;37.70
12060;DHT22;6091;51.432;6.880;2024-03-23T12:38:26;26.00;37.70
12060;DHT22;6091;51.432;6.880;2024-03-23T12:40:52;26.00;37.80
12060;DHT22;6091;51.432;6.880;2024-03-23T12:43:18;26.00;37.80
12060;DHT22;6091;51.432;6.880;2024-03-23T12:45:49;26.10;37.90
12060;DHT22;6091;51.432;6.880;2024-03-23T12:48:16;26.10;37.70
12060;DHT22;6091;51.432;6.880;2024-03-23T12:50:43;26.20;37.90
12060;DHT22;6091;51.432;6.880;2024-03-23T12:53:10;26.30;37.70
12060;DHT22;6091;51.432;6.880;2024-03-23T12:55:36;26.30;37.50
12060;DHT22;6091;51.432;6.880;2024-03-23T12:58:03;26.30;37.30
12060;DHT22;6091;51.432;6.880;2024-03-23T13:00:30;26.30;37.10
12060;DHT22;6091;51.432;6.880;2024-03-23T13:02:57;26.20;36.90
12060;DHT22;6091;51.432;6.880;2024-03-23T13:05:23;26.20;36.80
12060;DHT22;6091;51.432;6.880;2024-03-23T13:07:49;26.10;36.70
12060;DHT22;6091;51.432;6.880;2024-03-23T13:10:17;26.00;36.90
12060;DHT22;6091;51.432;6.880;2024-03-23T13:12:45;25.90;36.90
12060;DHT22;6091;51.432;6.880;2024-03-23T13:15:12;25.90;37.00
12060;DHT22;6091;51.432;6.880;2024-03-23T13:17:38;25.80;36.90
12060;DHT22;6091;51.432;6.880;2024-03-23T13:20:05;25.80;37.00
12060;DHT22;6091;51.432;6.880;2024-03-23T13:22:39;25.70;37.50
12060;DHT22;6091;51.432;6.880;2024-03-23T13:25:06;25.70;37.00
12060;DHT22;6091;51.432;6.880;2024-03-23T13:27:32;25.60;37.00
12060;DHT22;6091;51.432;6.880;2024-03-23T13:29:59;25.60;36.90
12060;DHT22;6091;51.432;6.880;2024-03-23T13:32:26;25.60;36.90
12060;DHT22;6091;51.432;6.880;2024-03-23T13:34:52;25.50;36.90
12060;DHT22;6091;51.432;6.880;2024-03-23T13:37:19;25.50;36.90
12060;DHT22;6091;51.432;6.880;2024-03-23T13:39:47;25.40;36.90
12060;DHT22;6091;51.432;6.880;2024-03-23T13:42:13;25.40;36.90
12060;DHT22;6091;51.432;6.880;2024-03-23T13:44:42;25.40;36.90
12060;DHT22;6091;51.432;6.880;2024-03-23T13:47:08;25.30;36.90
12060;DHT22;6091;51.432;6.880;2024-03-23T13:49:35;25.30;36.90
12060;DHT22;6091;51.432;6.880;2024-03-23T13:52:01;25.20;36.90
12060;DHT22;6091;51.432;6.880;2024-03-23T13:54:28;25.20;37.10
12060;DHT22;6091;51.432;6.880;2024-03-23T13:56:55;25.10;37.10
12060;DHT22;6091;51.432;6.880;2024-03-23T13:59:23;25.10;37.10
12060;DHT22;6091;51.432;6.880;2024-03-23T14:01:50;25.10;37.20
12060;DHT22;6091;51.432;6.880;2024-03-23T14:04:17;25.20;37.20
12060;DHT22;6091;51.432;6.880;2024-03-23T14:06:46;25.20;37.20
12060;DHT22;6091;51.432;6.880;2024-03-23T14:09:15;25.10;37.20
12060;DHT22;6091;51.432;6.880;2024-03-23T14:11:47;25.20;37.20
12060;DHT22;6091;51.432;6.880;2024-03-23T14:14:13;25.20;37.20
12060;DHT22;6091;51.432;6.880;2024-03-23T14:16:45;25.20;37.30
12060;DHT22;6091;51.432;6.880;2024-03-23T14:19:12;25.20;37.20
12060;DHT22;6091;51.432;6.880;2024-03-23T14:21:38;25.30;37.30
12060;DHT22;6091;51.432;6.880;2024-03-23T14:24:05;25.30;37.20
12060;DHT22;6091;51.432;6.880;2024-03-23T14:26:33;25.30;37.10
12060;DHT22;6091;51.432;6.880;2024-03-23T14:29:00;25.40;37.00
12060;DHT22;6091;51.432;6.880;2024-03-23T14:31:26;25.40;37.00
12060;DHT22;6091;51.432;6.880;2024-03-23T14:33:52;25.40;37.20
12060;DHT22;6091;51.432;6.880;2024-03-23T14:36:18;25.40;37.20
12060;DHT22;6091;51.432;6.880;2024-03-23T14:38:48;25.50;37.40
12060;DHT22;6091;51.432;6.880;2024-03-23T14:41:15;25.60;37.30
12060;DHT22;6091;51.432;6.880;2024-03-23T14:43:41;25.60;37.30
12060;DHT22;6091;51.432;6.880;2024-03-23T14:46:14;25.70;37.20
12060;DHT22;6091;51.432;6.880;2024-03-23T14:48:42;25.70;37.00
12060;DHT22;6091;51.432;6.880;2024-03-23T14:51:10;25.70;36.80
12060;DHT22;6091;51.432;6.880;2024-03-23T14:53:39;25.60;36.70
12060;DHT22;6091;51.432;6.880;2024-03-23T14:56:08;25.60;36.60
12060;DHT22;6091;51.432;6.880;2024-03-23T14:58:37;25.60;36.60
12060;DHT22;6091;51.432;6.880;2024-03-23T15:01:05;25.50;36.60
12060;DHT22;6091;51.432;6.880;2024-03-23T15:03:39;25.40;36.60
12060;DHT22;6091;51.432;6.880;2024-03-23T15:06:06;25.30;36.60
12060;DHT22;6091;51.432;6.880;2024-03-23T15:08:37;25.30;36.70
12060;DHT22;6091;51.432;6.880;2024-03-23T15:11:06;25.20;36.80
12060;DHT22;6091;51.432;6.880;2024-03-23T15:13:37;25.20;36.90
12060;DHT22;6091;51.432;6.880;2024-03-23T15:16:05;25.20;36.90
12060;DHT22;6091;51.432;6.880;2024-03-23T15:18:35;25.20;36.90
12060;DHT22;6091;51.432;6.880;2024-03-23T15:21:03;25.20;36.80
12060;DHT22;6091;51.432;6.880;2024-03-23T15:23:32;25.20;36.90
12060;DHT22;6091;51.432;6.880;2024-03-23T15:26:00;25.20;36.90
12060;DHT22;6091;51.432;6.880;2024-03-23T15:28:28;25.20;36.90
12060;DHT22;6091;51.432;6.880;2024-03-23T15:31:28;25.10;36.80
12060;DHT22;6091;51.432;6.880;2024-03-23T15:34:01;25.10;36.90
12060;DHT22;6091;51.432;6.880;2024-03-23T15:36:27;25.10;36.90
12060;DHT22;6091;51.432;6.880;2024-03-23T15:38:54;25.10;36.90
12060;DHT22;6091;51.432;6.880;2024-03-23T15:41:21;25.10;36.90
12060;DHT22;6091;51.432;6.880;2024-03-23T15:43:49;25.10;37.00
12060;DHT22;6091;51.432;6.880;2024-03-23T15:46:16;25.10;37.00
12060;DHT22;6091;51.432;6.880;2024-03-23T15:48:47;25.10;37.10
12060;DHT22;6091;51.432;6.880;2024-03-23T15:51:15;25.10;37.10
12060;DHT22;6091;51.432;6.880;2024-03-23T15:53:41;25.10;37.20
12060;DHT22;6091;51.432;6.880;2024-03-23T15:56:08;25.10;37.10
12060;DHT22;6091;51.432;6.880;2024-03-23T15:58:36;25.00;37.00
12060;DHT22;6091;51.432;6.880;2024-03-23T16:01:06;24.90;37.40
12060;DHT22;6091;51.432;6.880;2024-03-23T16:03:37;25.00;37.40
12060;DHT22;6091;51.432;6.880;2024-03-23T16:06:05;24.90;37.30
12060;DHT22;6091;51.432;6.880;2024-03-23T16:08:36;24.90;37.30
12060;DHT22;6091;51.432;6.880;2024-03-23T16:11:06;24.90;37.20
12060;DHT22;6091;51.432;6.880;2024-03-23T16:13:35;24.90;37.30
12060;DHT22;6091;51.432;6.880;2024-03-23T16:16:05;24.90;37.30
12060;DHT22;6091;51.432;6.880;2024-03-23T16:18:37;24.80;37.30
12060;DHT22;6091;51.432;6.880;2024-03-23T16:21:14;24.80;37.40
12060;DHT22;6091;51.432;6.880;2024-03-23T16:23:43;24.80;37.50
12060;DHT22;6091;51.432;6.880;2024-03-23T16:26:12;24.80;37.50
12060;DHT22;6091;51.432;6.880;2024-03-23T16:28:38;24.80;37.60
12060;DHT22;6091;51.432;6.880;2024-03-23T16:31:10;24.70;37.50
12060;DHT22;6091;51.432;6.880;2024-03-23T16:33:37;24.70;37.90
12060;DHT22;6091;51.432;6.880;2024-03-23T16:36:06;24.70;37.40
12060;DHT22;6091;51.432;6.880;2024-03-23T16:38:41;24.70;37.40
12060;DHT22;6091;51.432;6.880;2024-03-23T16:41:11;24.70;37.40
12060;DHT22;6091;51.432;6.880;2024-03-23T16:43:41;24.70;37.30
12060;DHT22;6091;51.432;6.880;2024-03-23T16:46:13;24.60;37.30
12060;DHT22;6091;51.432;6.880;2024-03-23T16:48:42;24.60;37.10
12060;DHT22;6091;51.432;6.880;2024-03-23T16:51:10;24.50;37.00
12060;DHT22;6091;51.432;6.880;2024-03-23T16:53:38;24.50;37.00
12060;DHT22;6091;51.432;6.880;2024-03-23T16:56:08;24.40;37.00
12060;DHT22;6091;51.432;6.880;2024-03-23T16:58:37;24.40;37.00